Campanya Meteocatpedra
Centenari de l'SMC: 100 anys mirant el cel

Dades de l'estació automàtica Sant Cugat del Vallès - CAR

?
?

Resum diari

22:30 TU
Dades diàries de l'estació meteorològica
Temperatura mitjana 17.9 °C
Temperatura màxima 26.0 °C 13:09 TU
Temperatura mínima 13.7 °C 3:34 TU
Humitat relativa mitjana 76%
Precipitació acumulada 0.2 mm
Ratxa màxima del vent (10 m) 27.0 km/h - 170º 15:11 TU
Irradiació solar global 17.8 MJ/m2

El tram horari està expressat en Temps Universal (TU). Cal sumar una hora en horari d'hivern i dues en horari d'estiu per passar a l'hora oficial.

Sant Cugat del Vallès - CAR

Metadades estació meteorològica
Municipi Sant Cugat del Vallès
Comarca Vallès Occidental
Altitud 158 m
Data alta 08.08.2013
Estat actual Operativa
Dades de període
Període
TU
TM
°C
TX
°C
TN
°C
HRM
%
PPT
mm
VVM (10 m)
km/h
DVM (10 m)
graus
VVX (10 m)
km/h
RS
W/m2
00:00 - 00:30 14.9 15.1 14.8 88 0.0 1.1 318 2.9 0
00:30 - 01:00 14.8 15.2 14.6 88 0.0 2.2 289 4.7 0
01:00 - 01:30 14.7 15.2 14.4 89 0.0 0.7 338 2.5 0
01:30 - 02:00 14.4 14.5 14.2 90 0.0 0.7 348 3.2 0
02:00 - 02:30 14.4 14.5 14.2 91 0.0 1.1 74 2.9 0
02:30 - 03:00 14.2 14.4 14.1 91 0.0 1.1 309 2.9 0
03:00 - 03:30 14.2 14.4 13.9 92 0.0 0.4 287 2.9 0
03:30 - 04:00 13.9 14.3 13.7 93 0.0 3.2 302 7.6 0
04:00 - 04:30 14.4 14.7 14.1 91 0.0 4.0 286 8.3 0
04:30 - 05:00 14.1 14.3 14.0 92 0.0 2.5 290 6.1 0
05:00 - 05:30 14.3 14.4 14.1 90 0.0 3.2 252 7.2 0
05:30 - 06:00 13.9 14.1 13.8 91 0.0 3.6 271 6.1 10
06:00 - 06:30 14.5 14.7 14.1 87 0.0 3.2 279 7.6 41
06:30 - 07:00 15.2 15.6 14.7 84 0.0 3.2 301 7.6 123
07:00 - 07:30 16.1 16.4 15.7 78 0.0 4.7 265 10.8 145
07:30 - 08:00 16.5 16.8 16.4 76 0.0 7.2 266 13.0 168
08:00 - 08:30 17.4 18.1 16.8 71 0.0 7.9 269 14.0 328
08:30 - 09:00 18.7 19.4 18.1 64 0.0 8.3 287 18.7 404
09:00 - 09:30 19.4 20.0 19.0 59 0.0 9.7 304 22.3 560
09:30 - 10:00 20.4 21.2 19.6 57 0.0 5.8 281 13.7 681
10:00 - 10:30 21.5 22.4 21.2 53 0.0 6.1 284 14.8 713
10:30 - 11:00 22.4 22.9 22.0 51 0.0 7.2 273 16.9 738
11:00 - 11:30 23.0 23.8 22.1 50 0.0 6.8 265 16.2 760
11:30 - 12:00 23.8 24.5 23.3 48 0.0 6.5 245 20.2 760
12:00 - 12:30 24.0 24.6 23.6 45 0.0 9.0 282 23.0 732
12:30 - 13:00 23.8 24.6 23.0 44 0.0 10.4 278 19.4 676
13:00 - 13:30 24.7 26.0 23.8 42 0.0 6.8 258 22.7 570
13:30 - 14:00 23.3 24.1 22.9 59 0.0 10.8 184 23.4 419
14:00 - 14:30 22.9 23.5 22.2 64 0.0 12.2 168 26.3 545
14:30 - 15:00 23.0 23.4 22.6 65 0.0 11.5 166 25.9 542
15:00 - 15:30 22.6 23.0 22.2 66 0.0 10.8 166 27.0 454
15:30 - 16:00 21.8 22.5 21.0 71 0.0 9.7 172 20.2 207
16:00 - 16:30 21.1 21.6 20.7 73 0.0 10.8 168 23.8 160
16:30 - 17:00 21.2 21.6 20.8 74 0.0 8.3 151 19.8 187
17:00 - 17:30 20.8 21.5 19.8 75 0.0 5.8 102 16.9 26
17:30 - 18:00 18.5 19.6 17.6 75 0.0 5.0 62 15.1 1
18:00 - 18:30 16.6 17.5 16.0 87 0.0 6.1 70 20.2 0
18:30 - 19:00 16.0 16.2 15.9 89 0.2 5.4 86 13.7 0
19:00 - 19:30 15.9 16.1 15.8 91 0.0 3.6 100 15.8 0
19:30 - 20:00 15.7 15.8 15.7 90 0.0 3.6 85 10.8 0
20:00 - 20:30 15.7 15.8 15.6 89 0.0 2.9 93 6.8 0
20:30 - 21:00 15.5 15.7 15.3 88 0.0 2.2 104 5.4 0
21:00 - 21:30 15.1 15.4 15.0 90 0.0 0.7 25 3.2 0
21:30 - 22:00 14.9 15.0 14.8 90 0.0 1.8 358 4.3 0
22:00 - 22:30 14.9 15.0 14.7 89 0.0 2.2 121 4.7 0
22:30 - 23:00 14.8 14.9 14.5 92 0.0 2.9 133 6.1 0

Les dades en taronja només han passat un control de qualitat automàtic. Resta pendent la seva validació definitiva.